Spirit Of Washington — WDC9006 — position and weather

sailwx.info

Track history (hours):
 
Tides and Currents Weather Stations Pressure Air Temp Water Temp Dewpoint Dewpoint Depression Visibility Wind Speed Wind Dir Waves Ship Positions

Spirit Of Washington

Owner: SPIRIT CRUISES LLC, Washington, DC. More information available from US FCC via Universal Licensing System and Coast Guard Vessel Documentation Center.

Last reported at 2018-Jun-20 19:58 UTC. Time now 2018-Jun-20 20:23 UTC.
Position N 38°52' W 077°01'.

Length 47 m; draft 2.1 m.

Type: Passenger vessel. MMSI: 367096310.

Date/timePositionNaut miles runAvg speedWind from/ knotsBaromVisibWave heightAir tempDewpointWater temp
2018-Jun-20 19:58N 38°52' W 077°01'0 0.0
2018-Jun-20 19:28N 38°52' W 077°01'0 0.0
2018-Jun-20 19:00N 38°52' W 077°01'0 0.0
2018-Jun-20 18:30N 38°52' W 077°01'0 0.1
2018-Jun-20 17:57N 38°52' W 077°01'2 4.4
2018-Jun-20 17:29N 38°50' W 077°01'2 4.4
2018-Jun-20 16:59N 38°48' W 077°02'3 5.6
2018-Jun-20 16:27N 38°51' W 077°01'1 2.9
2018-Jun-20 15:59N 38°52' W 077°01'0 0.0
2018-Jun-20 15:30N 38°52' W 077°01'0 0.0
2018-Jun-20 14:59N 38°52' W 077°01'0 0.0
2018-Jun-20 14:29N 38°52' W 077°01'0 0.0
2018-Jun-20 13:59N 38°52' W 077°01'0 0.0
2018-Jun-20 13:30N 38°52' W 077°01'0 0.0
2018-Jun-20 12:59N 38°52' W 077°01'0 0.0
2018-Jun-20 12:30N 38°52' W 077°01'0 0.0
2018-Jun-20 11:59N 38°52' W 077°01'0 0.0
2018-Jun-20 11:29N 38°52' W 077°01'0 0.0
2018-Jun-20 10:59N 38°52' W 077°01'0 0.0
2018-Jun-20 10:29N 38°52' W 077°01'0 0.0
2018-Jun-20 09:56N 38°52' W 077°01'0 0.0
2018-Jun-20 09:29N 38°52' W 077°01'0 0.0
2018-Jun-20 08:59N 38°52' W 077°01'0 0.0
2018-Jun-20 08:29N 38°52' W 077°01'0 0.0
2018-Jun-20 07:59N 38°52' W 077°01'0 0.0
2018-Jun-20 07:29N 38°52' W 077°01'0 0.0
2018-Jun-20 06:59N 38°52' W 077°01'0 0.0
2018-Jun-20 06:29N 38°52' W 077°01'0 0.0
2018-Jun-20 05:59N 38°52' W 077°01'0 0.0
2018-Jun-20 05:29N 38°52' W 077°01'0 0.0
2018-Jun-20 05:00N 38°52' W 077°01'0 0.0
2018-Jun-20 04:30N 38°52' W 077°01'0 0.0
2018-Jun-20 04:00N 38°52' W 077°01'0 0.0
2018-Jun-20 03:30N 38°52' W 077°01'0 0.0
2018-Jun-20 03:00N 38°52' W 077°01'0 0.0
2018-Jun-20 02:30N 38°52' W 077°01'0 0.0
2018-Jun-20 02:00N 38°52' W 077°01'0 0.0
2018-Jun-20 01:29N 38°52' W 077°01'1 2.6
2018-Jun-20 01:00N 38°51' W 077°01'4 7.2
2018-Jun-20 00:30N 38°48' W 077°02'1 1.8
2018-Jun-19 23:58N 38°49' W 077°02'4 7.2
2018-Jun-19 23:28N 38°52' W 077°01'0 0.6
2018-Jun-19 22:59N 38°52' W 077°01'0 0.0
2018-Jun-19 22:30N 38°52' W 077°01'0 0.0
2018-Jun-19 21:57N 38°52' W 077°01'0 0.0
2018-Jun-19 21:27N 38°52' W 077°01'0 0.0
2018-Jun-19 21:00N 38°52' W 077°01'0 0.0
2018-Jun-19 20:28N 38°52' W 077°01'0 0.0
2018-Jun-19 20:00N 38°52' W 077°01'0 0.0
2018-Jun-19 19:23N 38°52' W 077°01'0 0.0
2018-Jun-19 18:57N 38°52' W 077°01'0 0.0
2018-Jun-19 18:28N 38°52' W 077°01'0 0.0
2018-Jun-19 17:59N 38°52' W 077°01'0 0.0
2018-Jun-19 17:25N 38°52' W 077°01'0 0.0
2018-Jun-19 16:54N 38°52' W 077°01'0 0.0
2018-Jun-19 16:28N 38°52' W 077°01'0 0.0
2018-Jun-19 15:56N 38°52' W 077°01'0 0.0
2018-Jun-19 15:30N 38°52' W 077°01'0 0.0
2018-Jun-19 14:59N 38°52' W 077°01'0 0.0
2018-Jun-19 14:29N 38°52' W 077°01'0 0.0
2018-Jun-19 14:00N 38°52' W 077°01'0 0.0
2018-Jun-19 13:27N 38°52' W 077°01'0 0.0
2018-Jun-19 12:56N 38°52' W 077°01'0 0.0
2018-Jun-19 12:29N 38°52' W 077°01'0 0.0
2018-Jun-19 11:59N 38°52' W 077°01'0 0.0
2018-Jun-19 11:28N 38°52' W 077°01'0 0.0
2018-Jun-19 11:00N 38°52' W 077°01'0 0.0
2018-Jun-19 10:30N 38°52' W 077°01'0 0.0
2018-Jun-19 09:58N 38°52' W 077°01'0 0.0
2018-Jun-19 09:30N 38°52' W 077°01'0 0.0
2018-Jun-19 08:59N 38°52' W 077°01'0 0.0
2018-Jun-19 08:30N 38°52' W 077°01'0 0.0
2018-Jun-19 08:00N 38°52' W 077°01'0 0.0
2018-Jun-19 07:29N 38°52' W 077°01'0 0.0
2018-Jun-19 06:57N 38°52' W 077°01'0 0.0
2018-Jun-19 06:27N 38°52' W 077°01'0 0.0
2018-Jun-19 06:00N 38°52' W 077°01'0 0.0
2018-Jun-19 05:25N 38°52' W 077°01'0 0.0
2018-Jun-19 04:59N 38°52' W 077°01'1 2.2
2018-Jun-19 04:29N 38°51' W 077°01'0 0.8
2018-Jun-19 04:00N 38°52' W 077°01'1 1.3
2018-Jun-19 03:26N 38°52' W 077°01'0 0.0
2018-Jun-19 02:58N 38°52' W 077°01'0 0.0
2018-Jun-19 02:28N 38°52' W 077°01'0 0.0
2018-Jun-19 01:58N 38°52' W 077°01'0 0.0
2018-Jun-19 01:29N 38°52' W 077°01'0 0.0
2018-Jun-19 00:58N 38°52' W 077°01'0 0.0
2018-Jun-19 00:31N 38°52' W 077°01'0 0.0
2018-Jun-18 23:58N 38°52' W 077°01'0 0.0
2018-Jun-18 23:26N 38°52' W 077°01'0 0.0
2018-Jun-18 22:56N 38°52' W 077°01'0 0.0
2018-Jun-18 22:29N 38°52' W 077°01'0 0.0
2018-Jun-18 21:58N 38°52' W 077°01'0 0.0
2018-Jun-18 21:28N 38°52' W 077°01'0 0.0
2018-Jun-18 21:00N 38°52' W 077°01'0 0.0
2018-Jun-18 20:29N 38°52' W 077°01'0 0.0
2018-Jun-18 19:58N 38°52' W 077°01'0 0.0
2018-Jun-18 19:28N 38°52' W 077°01'0 0.0
2018-Jun-18 18:57N 38°52' W 077°01'0 0.0
2018-Jun-18 18:28N 38°52' W 077°01'0 0.0
2018-Jun-18 17:57N 38°52' W 077°01'0 0.0
2018-Jun-18 17:28N 38°52' W 077°01'0 0.0
2018-Jun-18 16:56N 38°52' W 077°01'0 0.0
2018-Jun-18 16:28N 38°52' W 077°01'0 0.0
2018-Jun-18 16:00N 38°52' W 077°01'0 0.0
2018-Jun-18 15:28N 38°52' W 077°01'0 0.0
2018-Jun-18 14:58N 38°52' W 077°01'0 0.0
2018-Jun-18 14:27N 38°52' W 077°01'0 0.0
2018-Jun-18 13:58N 38°52' W 077°01'0 0.0
2018-Jun-18 13:29N 38°52' W 077°01'0 0.0
2018-Jun-18 12:59N 38°52' W 077°01'0 0.0
2018-Jun-18 12:30N 38°52' W 077°01'0 0.0
2018-Jun-18 12:00N 38°52' W 077°01'0 0.0
2018-Jun-18 11:25N 38°52' W 077°01'0 0.0
2018-Jun-18 10:56N 38°52' W 077°01'0 0.0
2018-Jun-18 10:30N 38°52' W 077°01'0 0.0
2018-Jun-18 09:59N 38°52' W 077°01'0 0.0
2018-Jun-18 09:28N 38°52' W 077°01'0 0.0
2018-Jun-18 08:57N 38°52' W 077°01'0 0.0
2018-Jun-18 08:28N 38°52' W 077°01'0 0.0
2018-Jun-18 08:00N 38°52' W 077°01'0 0.0
2018-Jun-18 07:29N 38°52' W 077°01'0 0.0
2018-Jun-18 06:58N 38°52' W 077°01'0 0.0
2018-Jun-18 06:19N 38°52' W 077°01'0 0.0
2018-Jun-18 05:59N 38°52' W 077°01'0 0.0
2018-Jun-18 05:30N 38°52' W 077°01'0 0.0
2018-Jun-18 05:00N 38°52' W 077°01'0 0.0
2018-Jun-18 04:27N 38°52' W 077°01'0 0.0
2018-Jun-18 03:58N 38°52' W 077°01'0 0.0
2018-Jun-18 03:28N 38°52' W 077°01'0 0.0
2018-Jun-18 02:59N 38°52' W 077°01'0 0.0
2018-Jun-18 02:30N 38°52' W 077°01'0 0.0
2018-Jun-18 01:57N 38°52' W 077°01'0 0.0
2018-Jun-18 01:23N 38°52' W 077°01'0 0.0
2018-Jun-18 00:58N 38°52' W 077°01'0 0.0
2018-Jun-18 00:28N 38°52' W 077°01'0 0.0
2018-Jun-17 23:56N 38°52' W 077°01'0 0.0
2018-Jun-17 23:27N 38°52' W 077°01'0 0.0
2018-Jun-17 22:58N 38°52' W 077°01'0 0.0
2018-Jun-17 22:28N 38°52' W 077°01'0 0.0
2018-Jun-17 22:00N 38°52' W 077°01'2 4.7
2018-Jun-17 21:30N 38°50' W 077°02'2 2.9
2018-Jun-17 21:00N 38°49' W 077°02'3 5.8
2018-Jun-17 20:30N 38°51' W 077°01'1 1.9
2018-Jun-17 19:59N 38°52' W 077°01'0 0.0
2018-Jun-17 19:29N 38°52' W 077°01'0 0.0
2018-Jun-17 18:57N 38°52' W 077°01'0 0.0
2018-Jun-17 18:27N 38°52' W 077°01'0 0.0
2018-Jun-17 17:59N 38°52' W 077°01'0 0.0
2018-Jun-17 17:25N 38°52' W 077°01'0 0.0
2018-Jun-17 16:56N 38°52' W 077°01'2 5.0
2018-Jun-17 16:28N 38°50' W 077°02'0 0.9
2018-Jun-17 16:01N 38°50' W 077°02'2 3.8
2018-Jun-17 15:29N 38°52' W 077°02'1 1.6
2018-Jun-17 14:57N 38°52' W 077°01'0 0.0
2018-Jun-17 14:27N 38°52' W 077°01'0 0.0
2018-Jun-17 13:59N 38°52' W 077°01'0 0.0
2018-Jun-17 13:27N 38°52' W 077°01'0 0.0
2018-Jun-17 13:00N 38°52' W 077°01'0 0.0
2018-Jun-17 12:26N 38°52' W 077°01'0 0.0
2018-Jun-17 12:00N 38°52' W 077°01'0 0.0
2018-Jun-17 11:28N 38°52' W 077°01'0 0.0
2018-Jun-17 10:58N 38°52' W 077°01'0 0.0
2018-Jun-17 10:28N 38°52' W 077°01'0 0.0
2018-Jun-17 09:58N 38°52' W 077°01'0 0.0
2018-Jun-17 09:29N 38°52' W 077°01'0 0.0
2018-Jun-17 08:57N 38°52' W 077°01'0 0.0
2018-Jun-17 08:26N 38°52' W 077°01'0 0.0
2018-Jun-17 08:00N 38°52' W 077°01'0 0.0
2018-Jun-17 07:28N 38°52' W 077°01'0 0.0
2018-Jun-17 06:57N 38°52' W 077°01'0 0.0
2018-Jun-17 06:28N 38°52' W 077°01'0 0.0
2018-Jun-17 06:00N 38°52' W 077°01'0 0.0
2018-Jun-17 05:29N 38°52' W 077°01'0 0.0
2018-Jun-17 04:59N 38°52' W 077°01'0 0.0
2018-Jun-17 04:29N 38°52' W 077°01'0 0.0
2018-Jun-17 03:57N 38°52' W 077°01'0 0.0
2018-Jun-17 03:28N 38°52' W 077°01'0 0.7
2018-Jun-17 02:57N 38°52' W 077°01'4 8.3
2018-Jun-17 02:30N 38°48' W 077°02'0 0.6
2018-Jun-17 01:58N 38°49' W 077°02'3 4.9
2018-Jun-17 01:27N 38°51' W 077°01'1 2.1
2018-Jun-17 00:59N 38°52' W 077°02'1 1.1
2018-Jun-17 00:28N 38°52' W 077°01'1 1.2
2018-Jun-16 23:56N 38°52' W 077°01'0 0.0
2018-Jun-16 23:27N 38°52' W 077°01'0 0.0
2018-Jun-16 22:59N 38°52' W 077°01'0 0.0
2018-Jun-16 22:28N 38°52' W 077°01'0 0.0
2018-Jun-16 21:56N 38°52' W 077°01'0 0.0
2018-Jun-16 21:27N 38°52' W 077°01'0 0.0
2018-Jun-16 20:56N 38°52' W 077°01'0 0.0
2018-Jun-16 20:29N 38°52' W 077°01'0 0.0
2018-Jun-16 19:58N 38°52' W 077°01'0 0.0
2018-Jun-16 19:29N 38°52' W 077°01'0 0.0
2018-Jun-16 18:54N 38°52' W 077°01'0 0.0
2018-Jun-16 18:29N 38°52' W 077°01'0 0.0
2018-Jun-16 17:58N 38°52' W 077°01'0 0.4
2018-Jun-16 17:25N 38°52' W 077°01'2 5.7
2018-Jun-16 17:00N 38°50' W 077°02'3 5.0
2018-Jun-16 16:29N 38°47' W 077°02'3 6.8
2018-Jun-16 15:59N 38°51' W 077°01'2 3.4
2018-Jun-16 15:30N 38°52' W 077°01'0 0.0
2018-Jun-16 14:59N 38°52' W 077°01'0 0.0
2018-Jun-16 14:28N 38°52' W 077°01'0 0.0
2018-Jun-16 13:58N 38°52' W 077°01'0 0.0
2018-Jun-16 13:28N 38°52' W 077°01'0 0.0
2018-Jun-16 12:57N 38°52' W 077°01'0 0.0
2018-Jun-16 12:30N 38°52' W 077°01'0 0.0
2018-Jun-16 12:00N 38°52' W 077°01'0 0.0
2018-Jun-16 11:28N 38°52' W 077°01'0 0.0
2018-Jun-16 10:54N 38°52' W 077°01'0 0.0
2018-Jun-16 10:30N 38°52' W 077°01'0 0.0
2018-Jun-16 09:58N 38°52' W 077°01'0 0.0
2018-Jun-16 09:28N 38°52' W 077°01'0 0.0
2018-Jun-16 08:56N 38°52' W 077°01'0 0.0
2018-Jun-16 08:27N 38°52' W 077°01'0 0.0
2018-Jun-16 07:59N 38°52' W 077°01'0 0.0
2018-Jun-16 07:28N 38°52' W 077°01'0 0.0
2018-Jun-16 06:59N 38°52' W 077°01'0 0.0
2018-Jun-16 06:30N 38°52' W 077°01'0 0.0
2018-Jun-16 05:58N 38°52' W 077°01'0 0.0
2018-Jun-16 05:28N 38°52' W 077°01'0 0.0
2018-Jun-16 04:57N 38°52' W 077°01'0 0.0
2018-Jun-16 04:30N 38°52' W 077°01'0 0.0
2018-Jun-16 03:56N 38°52' W 077°01'0 0.0
2018-Jun-16 03:28N 38°52' W 077°01'0 0.1
2018-Jun-16 02:56N 38°52' W 077°01'2 4.7
2018-Jun-16 02:30N 38°50' W 077°01'3 5.0
2018-Jun-16 01:58N 38°48' W 077°02'3 5.7
2018-Jun-16 01:27N 38°51' W 077°01'2 3.5
2018-Jun-16 00:59N 38°52' W 077°02'1 1.8
2018-Jun-16 00:30N 38°52' W 077°01'1 1.8
2018-Jun-15 23:58N 38°52' W 077°01'0 0.0
2018-Jun-15 23:28N 38°52' W 077°01'0 0.0
2018-Jun-15 22:59N 38°52' W 077°01'0 0.0
2018-Jun-15 22:26N 38°52' W 077°01'0 0.0
2018-Jun-15 22:00N 38°52' W 077°01'0 0.0
2018-Jun-15 21:29N 38°52' W 077°01'0 0.0
2018-Jun-15 20:56N 38°52' W 077°01'0 0.0
2018-Jun-15 20:28N 38°52' W 077°01'0 0.0
2018-Jun-15 19:50N 38°52' W 077°01'0 0.0
2018-Jun-15 19:30N 38°52' W 077°01'0 0.0
2018-Jun-15 18:59N 38°52' W 077°01'0 0.0
2018-Jun-15 18:29N 38°52' W 077°01'0 0.0
2018-Jun-15 17:58N 38°52' W 077°01'2 4.7
2018-Jun-15 17:30N 38°50' W 077°02'3 6.0
2018-Jun-15 17:00N 38°47' W 077°02'3 5.6
2018-Jun-15 16:30N 38°50' W 077°02'2 4.2
2018-Jun-15 15:57N 38°52' W 077°01'0 0.0
2018-Jun-15 15:26N 38°52' W 077°01'0 0.0
2018-Jun-15 15:00N 38°52' W 077°01'0 0.0
2018-Jun-15 14:29N 38°52' W 077°01'0 0.0
2018-Jun-15 14:00N 38°52' W 077°01'0 0.0
2018-Jun-15 13:29N 38°52' W 077°01'0 0.0
2018-Jun-15 13:00N 38°52' W 077°01'0 0.0
2018-Jun-15 12:27N 38°52' W 077°01'0 0.0
2018-Jun-15 11:59N 38°52' W 077°01'0 0.0
2018-Jun-15 11:29N 38°52' W 077°01'0 0.0
2018-Jun-15 10:57N 38°52' W 077°01'0 0.0
2018-Jun-15 10:30N 38°52' W 077°01'0 0.0
2018-Jun-15 10:00N 38°52' W 077°01'0 0.0
2018-Jun-15 09:26N 38°52' W 077°01'0 0.0
2018-Jun-15 08:58N 38°52' W 077°01'0 0.0
2018-Jun-15 08:29N 38°52' W 077°01'0 0.0
2018-Jun-15 07:58N 38°52' W 077°01'0 0.0
2018-Jun-15 07:25N 38°52' W 077°01'0 0.0
2018-Jun-15 06:57N 38°52' W 077°01'0 0.0
2018-Jun-15 06:25N 38°52' W 077°01'1 1.1
2018-Jun-15 05:56N 38°52' W 077°01'2 3.4
2018-Jun-15 05:30N 38°50' W 077°01'3 5.0
2018-Jun-15 04:59N 38°48' W 077°02'3 6.3
2018-Jun-15 04:31N 38°51' W 077°01'2 2.9
2018-Jun-15 03:59N 38°52' W 077°01'0 0.0
2018-Jun-15 03:30N 38°52' W 077°01'0 0.0
2018-Jun-15 02:59N 38°52' W 077°01'0 0.0
2018-Jun-15 02:27N 38°52' W 077°01'0 0.1
2018-Jun-15 01:58N 38°52' W 077°01'1 1.9
2018-Jun-15 01:30N 38°52' W 077°01'3 6.4
2018-Jun-15 00:59N 38°48' W 077°02'3 6.5
2018-Jun-15 00:30N 38°51' W 077°02'1 1.4
2018-Jun-14 23:59N 38°52' W 077°01'0 0.7
2018-Jun-14 23:28N 38°52' W 077°01'0 0.0
2018-Jun-14 22:58N 38°52' W 077°01'0 0.0
2018-Jun-14 22:29N 38°52' W 077°01'0 0.0
2018-Jun-14 21:57N 38°52' W 077°01'0 0.0
2018-Jun-14 21:30N 38°52' W 077°01'0 0.0
2018-Jun-14 20:56N 38°52' W 077°01'0 0.0
2018-Jun-14 20:26N 38°52' W 077°01'0 0.0
2018-Jun-14 20:01N 38°52' W 077°01'0 0.0
2018-Jun-14 19:28N 38°52' W 077°01'0 0.0
2018-Jun-14 18:56N 38°52' W 077°01'0 0.0
2018-Jun-14 18:29N 38°52' W 077°01'0 0.0
2018-Jun-14 17:59N 38°52' W 077°01'0 0.0
2018-Jun-14 17:27N 38°52' W 077°01'0 0.3
2018-Jun-14 16:58N 38°52' W 077°01'2 4.6
2018-Jun-14 16:30N 38°50' W 077°02'2 4.0
2018-Jun-14 16:00N 38°48' W 077°02'3 5.9
2018-Jun-14 15:30N 38°51' W 077°01'1 2.6
2018-Jun-14 14:58N 38°52' W 077°01'0 0.0
2018-Jun-14 14:26N 38°52' W 077°01'0 0.0
2018-Jun-14 13:57N 38°52' W 077°01'0 0.0
2018-Jun-14 13:28N 38°52' W 077°01'0 0.0
2018-Jun-14 12:58N 38°52' W 077°01'0 0.0
2018-Jun-14 12:29N 38°52' W 077°01'0 0.0
2018-Jun-14 12:00N 38°52' W 077°01'0 0.0
2018-Jun-14 11:26N 38°52' W 077°01'0 0.0
2018-Jun-14 10:58N 38°52' W 077°01'0 0.0
2018-Jun-14 10:29N 38°52' W 077°01'0 0.0
2018-Jun-14 10:00N 38°52' W 077°01'0 0.0
2018-Jun-14 09:26N 38°52' W 077°01'0 0.0
2018-Jun-14 08:59N 38°52' W 077°01'0 0.0
2018-Jun-14 08:30N 38°52' W 077°01'0 0.0
2018-Jun-14 07:57N 38°52' W 077°01'0 0.0
2018-Jun-14 07:27N 38°52' W 077°01'0 0.0
2018-Jun-14 07:00N 38°52' W 077°01'0 0.0
2018-Jun-14 06:27N 38°52' W 077°01'0 0.0
2018-Jun-14 05:58N 38°52' W 077°01'0 0.0
2018-Jun-14 05:28N 38°52' W 077°01'0 0.0
2018-Jun-14 04:56N 38°52' W 077°01'0 0.0
2018-Jun-14 04:25N 38°52' W 077°01'0 0.0
2018-Jun-14 03:56N 38°52' W 077°01'0 0.0
2018-Jun-14 03:30N 38°52' W 077°01'0 0.0
2018-Jun-14 03:00N 38°52' W 077°01'0 0.0
2018-Jun-14 02:28N 38°52' W 077°01'0 0.0
2018-Jun-14 01:59N 38°52' W 077°01'0 0.0
2018-Jun-14 01:29N 38°52' W 077°01'2 4.1
2018-Jun-14 00:58N 38°50' W 077°02'2 5.0
2018-Jun-14 00:30N 38°48' W 077°02'0 0.8
2018-Jun-13 23:59N 38°48' W 077°02'3 6.5
2018-Jun-13 23:30N 38°51' W 077°01'2 3.3
2018-Jun-13 22:59N 38°52' W 077°01'0 0.0
2018-Jun-13 22:28N 38°52' W 077°01'0 0.0
2018-Jun-13 21:58N 38°52' W 077°01'0 0.0
2018-Jun-13 21:29N 38°52' W 077°01'0 0.0
2018-Jun-13 21:00N 38°52' W 077°01'0 0.0
2018-Jun-13 20:28N 38°52' W 077°01'0 0.0
2018-Jun-13 19:57N 38°52' W 077°01'0 0.0
2018-Jun-13 19:30N 38°52' W 077°01'0 0.0
2018-Jun-13 18:57N 38°52' W 077°01'0 0.0
2018-Jun-13 18:27N 38°52' W 077°01'0 0.0
2018-Jun-13 18:00N 38°52' W 077°01'2 4.5
2018-Jun-13 17:28N 38°50' W 077°02'2 3.6
2018-Jun-13 16:59N 38°48' W 077°02'3 5.6
2018-Jun-13 16:30N 38°51' W 077°01'1 2.5
2018-Jun-13 15:57N 38°52' W 077°01'0 0.0
2018-Jun-13 15:28N 38°52' W 077°01'0 0.0
2018-Jun-13 15:00N 38°52' W 077°01'0 0.0
2018-Jun-13 14:30N 38°52' W 077°01'0 0.0
2018-Jun-13 13:48N 38°52' W 077°01'0 0.0
2018-Jun-13 13:29N 38°52' W 077°01'0 0.0
2018-Jun-13 12:58N 38°52' W 077°01'0 0.0
2018-Jun-13 12:28N 38°52' W 077°01'0 0.0
2018-Jun-13 11:55N 38°52' W 077°01'0 0.0
2018-Jun-13 11:26N 38°52' W 077°01'0 0.0
2018-Jun-13 10:57N 38°52' W 077°01'0 0.0
2018-Jun-13 10:27N 38°52' W 077°01'0 0.0
2018-Jun-13 10:00N 38°52' W 077°01'0 0.0
2018-Jun-13 09:29N 38°52' W 077°01'0 0.0
2018-Jun-13 08:59N 38°52' W 077°01'0 0.0
2018-Jun-13 08:30N 38°52' W 077°01'0 0.0
2018-Jun-13 07:59N 38°52' W 077°01'0 0.0
2018-Jun-13 07:30N 38°52' W 077°01'0 0.0
2018-Jun-13 06:56N 38°52' W 077°01'0 0.0
2018-Jun-13 06:30N 38°52' W 077°01'0 0.0
2018-Jun-13 05:55N 38°52' W 077°01'0 0.0
2018-Jun-13 05:26N 38°52' W 077°01'0 0.0
2018-Jun-13 04:57N 38°52' W 077°01'0 0.0
2018-Jun-13 04:27N 38°52' W 077°01'0 0.0
2018-Jun-13 03:58N 38°52' W 077°01'0 0.0
2018-Jun-13 03:30N 38°52' W 077°01'0 0.0
2018-Jun-13 02:59N 38°52' W 077°01'0 0.0
2018-Jun-13 02:28N 38°52' W 077°01'0 0.0
2018-Jun-13 01:57N 38°52' W 077°01'0 0.0
2018-Jun-13 01:30N 38°52' W 077°01'0 0.0
2018-Jun-13 01:00N 38°52' W 077°01'0 0.0
2018-Jun-13 00:30N 38°52' W 077°01'0 0.0
2018-Jun-12 23:57N 38°52' W 077°01'0 0.0
2018-Jun-12 23:28N 38°52' W 077°01'0 0.0
2018-Jun-12 22:57N 38°52' W 077°01'0 0.0
2018-Jun-12 22:27N 38°52' W 077°01'0 0.0
2018-Jun-12 21:58N 38°52' W 077°01'0 0.0
2018-Jun-12 21:27N 38°52' W 077°01'0 0.0
2018-Jun-12 20:58N 38°52' W 077°01'0 0.0
2018-Jun-12 20:30N 38°52' W 077°01'0 0.0
2018-Jun-12 20:00N 38°52' W 077°01'0 0.0
2018-Jun-12 19:27N 38°52' W 077°01'0 0.0
2018-Jun-12 18:55N 38°52' W 077°01'0 0.0
2018-Jun-12 18:28N 38°52' W 077°01'0 0.0
2018-Jun-12 18:00N 38°52' W 077°01'0 0.0
2018-Jun-12 17:27N 38°52' W 077°01'0 0.5
2018-Jun-12 17:00N 38°52' W 077°01'3 4.9
2018-Jun-12 16:29N 38°50' W 077°02'1 2.0
2018-Jun-12 15:58N 38°49' W 077°02'3 6.1
2018-Jun-12 15:24N 38°52' W 077°01'0 0.9
2018-Jun-12 14:57N 38°52' W 077°01'0 0.0
2018-Jun-12 14:27N 38°52' W 077°01'0 0.0
2018-Jun-12 13:57N 38°52' W 077°01'0 0.0
2018-Jun-12 13:28N 38°52' W 077°01'0 0.0
2018-Jun-12 12:57N 38°52' W 077°01'0 0.0
2018-Jun-12 12:26N 38°52' W 077°01'0 0.0
2018-Jun-12 11:57N 38°52' W 077°01'0 0.0
2018-Jun-12 11:29N 38°52' W 077°01'0 0.0
2018-Jun-12 10:58N 38°52' W 077°01'0 0.0
2018-Jun-12 10:30N 38°52' W 077°01'0 0.0
2018-Jun-12 09:59N 38°52' W 077°01'0 0.0
2018-Jun-12 09:25N 38°52' W 077°01'0 0.0
2018-Jun-12 08:56N 38°52' W 077°01'0 0.0
2018-Jun-12 08:27N 38°52' W 077°01'0 0.0
2018-Jun-12 08:00N 38°52' W 077°01'0 0.0
2018-Jun-12 07:27N 38°52' W 077°01'0 0.0
2018-Jun-12 06:58N 38°52' W 077°01'0 0.0
2018-Jun-12 06:29N 38°52' W 077°01'0 0.0
2018-Jun-12 05:56N 38°52' W 077°01'0 0.0
2018-Jun-12 05:27N 38°52' W 077°01'0 0.0
2018-Jun-12 04:58N 38°52' W 077°01'0 0.0
2018-Jun-12 04:30N 38°52' W 077°01'0 0.0
2018-Jun-12 03:55N 38°52' W 077°01'0 0.0
2018-Jun-12 03:29N 38°52' W 077°01'0 0.0
2018-Jun-12 02:58N 38°52' W 077°01'0 0.0
2018-Jun-12 02:27N 38°52' W 077°01'0 0.0
2018-Jun-12 02:00N 38°52' W 077°01'0 0.0
2018-Jun-12 01:27N 38°52' W 077°01'0 0.0
2018-Jun-12 00:58N 38°52' W 077°01'2 5.1
2018-Jun-12 00:29N 38°50' W 077°02'2 4.3
2018-Jun-11 23:59N 38°48' W 077°02'3 5.3
2018-Jun-11 23:29N 38°50' W 077°02'2 3.6
2018-Jun-11 22:56N 38°52' W 077°01'0 0.0
2018-Jun-11 22:30N 38°52' W 077°01'0 0.0
2018-Jun-11 21:57N 38°52' W 077°01'0 0.0
2018-Jun-11 21:27N 38°52' W 077°01'0 0.0
2018-Jun-11 20:58N 38°52' W 077°01'0 0.0
2018-Jun-11 20:27N 38°52' W 077°01'0 0.0
2018-Jun-11 20:00N 38°52' W 077°01'0 0.0
2018-Jun-11 19:29N 38°52' W 077°01'0 0.0
2018-Jun-11 18:59N 38°52' W 077°01'0 0.0
2018-Jun-11 18:29N 38°52' W 077°01'0 0.0
2018-Jun-11 17:57N 38°52' W 077°01'0 0.0
2018-Jun-11 17:28N 38°52' W 077°01'1 1.8
2018-Jun-11 17:00N 38°52' W 077°01'2 4.4
2018-Jun-11 16:30N 38°50' W 077°02'1 2.1
2018-Jun-11 16:00N 38°48' W 077°02'3 6.5
2018-Jun-11 15:30N 38°52' W 077°01'1 1.5
2018-Jun-11 14:58N 38°52' W 077°01'0 0.0
2018-Jun-11 14:31N 38°52' W 077°01'0 0.0
2018-Jun-11 14:00N 38°52' W 077°01'0 0.0
2018-Jun-11 13:29N 38°52' W 077°01'0 0.0
2018-Jun-11 12:59N 38°52' W 077°01'0 0.0
2018-Jun-11 12:30N 38°52' W 077°01'0 0.0
2018-Jun-11 12:00N 38°52' W 077°01'0 0.0
2018-Jun-11 11:29N 38°52' W 077°01'0 0.0
2018-Jun-11 10:57N 38°52' W 077°01'0 0.0
2018-Jun-11 10:26N 38°52' W 077°01'0 0.0
2018-Jun-11 09:59N 38°52' W 077°01'0 0.0
2018-Jun-11 09:30N 38°52' W 077°01'0 0.0
2018-Jun-11 08:57N 38°52' W 077°01'0 0.0
2018-Jun-11 08:28N 38°52' W 077°01'0 0.0
2018-Jun-11 07:59N 38°52' W 077°01'0 0.0
2018-Jun-11 07:29N 38°52' W 077°01'0 0.0
2018-Jun-11 07:00N 38°52' W 077°01'0 0.0
2018-Jun-11 06:26N 38°52' W 077°01'0 0.0
2018-Jun-11 05:56N 38°52' W 077°01'0 0.0
2018-Jun-11 05:27N 38°52' W 077°01'0 0.0
2018-Jun-11 04:56N 38°52' W 077°01'0 0.0
2018-Jun-11 04:30N 38°52' W 077°01'0 0.0
2018-Jun-11 03:56N 38°52' W 077°01'0 0.0
2018-Jun-11 03:26N 38°52' W 077°01'0 0.0
2018-Jun-11 02:58N 38°52' W 077°01'0 0.0
2018-Jun-11 02:29N 38°52' W 077°01'0 0.0
2018-Jun-11 01:56N 38°52' W 077°01'0 0.0
2018-Jun-11 01:25N 38°52' W 077°01'1 1.2
2018-Jun-11 00:59N 38°52' W 077°01'2 4.9
2018-Jun-11 00:29N 38°49' W 077°02'2 5.0
2018-Jun-11 00:00N 38°47' W 077°02'3 5.5
2018-Jun-10 23:30N 38°50' W 077°02'3 5.3
2018-Jun-10 22:59N 38°52' W 077°01'0 0.0
2018-Jun-10 22:30N 38°52' W 077°01'0 0.0
2018-Jun-10 22:00N 38°52' W 077°01'0 0.0
2018-Jun-10 21:28N 38°52' W 077°01'0 0.0
2018-Jun-10 20:56N 38°52' W 077°01'0 0.0
2018-Jun-10 20:29N 38°52' W 077°01'0 0.0
2018-Jun-10 19:58N 38°52' W 077°01'  
Track history (hours):
 
Tides and Currents Weather Stations Pressure Air Temp Water Temp Dewpoint Dewpoint Depression Visibility Wind Speed Wind Dir Waves Ship Positions

Spirit Of Washington

Owner: SPIRIT CRUISES LLC, Washington, DC. More information available from US FCC via Universal Licensing System and Coast Guard Vessel Documentation Center.

Last reported at 2018-Jun-20 19:58 UTC. Time now 2018-Jun-20 20:23 UTC.
Position N 38°52' W 077°01'.

Length 47 m; draft 2.1 m.

Type: Passenger vessel. MMSI: 367096310.

Date/timePositionNaut miles runAvg speedWind from/ knotsBaromVisibWave heightAir tempDewpointWater temp
2018-Jun-20 19:58N 38°52' W 077°01'0 0.0
2018-Jun-20 19:28N 38°52' W 077°01'0 0.0
2018-Jun-20 19:00N 38°52' W 077°01'0 0.0
2018-Jun-20 18:30N 38°52' W 077°01'0 0.1
2018-Jun-20 17:57N 38°52' W 077°01'2 4.4
2018-Jun-20 17:29N 38°50' W 077°01'2 4.4
2018-Jun-20 16:59N 38°48' W 077°02'3 5.6
2018-Jun-20 16:27N 38°51' W 077°01'1 2.9
2018-Jun-20 15:59N 38°52' W 077°01'0 0.0
2018-Jun-20 15:30N 38°52' W 077°01'0 0.0
2018-Jun-20 14:59N 38°52' W 077°01'0 0.0
2018-Jun-20 14:29N 38°52' W 077°01'0 0.0
2018-Jun-20 13:59N 38°52' W 077°01'0 0.0
2018-Jun-20 13:30N 38°52' W 077°01'0 0.0
2018-Jun-20 12:59N 38°52' W 077°01'0 0.0
2018-Jun-20 12:30N 38°52' W 077°01'0 0.0
2018-Jun-20 11:59N 38°52' W 077°01'0 0.0
2018-Jun-20 11:29N 38°52' W 077°01'0 0.0
2018-Jun-20 10:59N 38°52' W 077°01'0 0.0
2018-Jun-20 10:29N 38°52' W 077°01'0 0.0
2018-Jun-20 09:56N 38°52' W 077°01'0 0.0
2018-Jun-20 09:29N 38°52' W 077°01'0 0.0
2018-Jun-20 08:59N 38°52' W 077°01'0 0.0
2018-Jun-20 08:29N 38°52' W 077°01'0 0.0
2018-Jun-20 07:59N 38°52' W 077°01'0 0.0
2018-Jun-20 07:29N 38°52' W 077°01'0 0.0
2018-Jun-20 06:59N 38°52' W 077°01'0 0.0
2018-Jun-20 06:29N 38°52' W 077°01'0 0.0
2018-Jun-20 05:59N 38°52' W 077°01'0 0.0
2018-Jun-20 05:29N 38°52' W 077°01'0 0.0
2018-Jun-20 05:00N 38°52' W 077°01'0 0.0
2018-Jun-20 04:30N 38°52' W 077°01'0 0.0
2018-Jun-20 04:00N 38°52' W 077°01'0 0.0
2018-Jun-20 03:30N 38°52' W 077°01'0 0.0
2018-Jun-20 03:00N 38°52' W 077°01'0 0.0
2018-Jun-20 02:30N 38°52' W 077°01'0 0.0
2018-Jun-20 02:00N 38°52' W 077°01'0 0.0
2018-Jun-20 01:29N 38°52' W 077°01'1 2.6
2018-Jun-20 01:00N 38°51' W 077°01'4 7.2
2018-Jun-20 00:30N 38°48' W 077°02'1 1.8
2018-Jun-19 23:58N 38°49' W 077°02'4 7.2
2018-Jun-19 23:28N 38°52' W 077°01'0 0.6
2018-Jun-19 22:59N 38°52' W 077°01'0 0.0
2018-Jun-19 22:30N 38°52' W 077°01'0 0.0
2018-Jun-19 21:57N 38°52' W 077°01'0 0.0
2018-Jun-19 21:27N 38°52' W 077°01'0 0.0
2018-Jun-19 21:00N 38°52' W 077°01'0 0.0
2018-Jun-19 20:28N 38°52' W 077°01'0 0.0
2018-Jun-19 20:00N 38°52' W 077°01'0 0.0
2018-Jun-19 19:23N 38°52' W 077°01'0 0.0
2018-Jun-19 18:57N 38°52' W 077°01'0 0.0
2018-Jun-19 18:28N 38°52' W 077°01'0 0.0
2018-Jun-19 17:59N 38°52' W 077°01'0 0.0
2018-Jun-19 17:25N 38°52' W 077°01'0 0.0
2018-Jun-19 16:54N 38°52' W 077°01'0 0.0
2018-Jun-19 16:28N 38°52' W 077°01'0 0.0
2018-Jun-19 15:56N 38°52' W 077°01'0 0.0
2018-Jun-19 15:30N 38°52' W 077°01'0 0.0
2018-Jun-19 14:59N 38°52' W 077°01'0 0.0
2018-Jun-19 14:29N 38°52' W 077°01'0 0.0
2018-Jun-19 14:00N 38°52' W 077°01'0 0.0
2018-Jun-19 13:27N 38°52' W 077°01'0 0.0
2018-Jun-19 12:56N 38°52' W 077°01'0 0.0
2018-Jun-19 12:29N 38°52' W 077°01'0 0.0
2018-Jun-19 11:59N 38°52' W 077°01'0 0.0
2018-Jun-19 11:28N 38°52' W 077°01'0 0.0
2018-Jun-19 11:00N 38°52' W 077°01'0 0.0
2018-Jun-19 10:30N 38°52' W 077°01'0 0.0
2018-Jun-19 09:58N 38°52' W 077°01'0 0.0
2018-Jun-19 09:30N 38°52' W 077°01'0 0.0
2018-Jun-19 08:59N 38°52' W 077°01'0 0.0
2018-Jun-19 08:30N 38°52' W 077°01'0 0.0
2018-Jun-19 08:00N 38°52' W 077°01'0 0.0
2018-Jun-19 07:29N 38°52' W 077°01'0 0.0
2018-Jun-19 06:57N 38°52' W 077°01'0 0.0
2018-Jun-19 06:27N 38°52' W 077°01'0 0.0
2018-Jun-19 06:00N 38°52' W 077°01'0 0.0
2018-Jun-19 05:25N 38°52' W 077°01'0 0.0
2018-Jun-19 04:59N 38°52' W 077°01'1 2.2
2018-Jun-19 04:29N 38°51' W 077°01'0 0.8
2018-Jun-19 04:00N 38°52' W 077°01'1 1.3
2018-Jun-19 03:26N 38°52' W 077°01'0 0.0
2018-Jun-19 02:58N 38°52' W 077°01'0 0.0
2018-Jun-19 02:28N 38°52' W 077°01'0 0.0
2018-Jun-19 01:58N 38°52' W 077°01'0 0.0
2018-Jun-19 01:29N 38°52' W 077°01'0 0.0
2018-Jun-19 00:58N 38°52' W 077°01'0 0.0
2018-Jun-19 00:31N 38°52' W 077°01'0 0.0
2018-Jun-18 23:58N 38°52' W 077°01'0 0.0
2018-Jun-18 23:26N 38°52' W 077°01'0 0.0
2018-Jun-18 22:56N 38°52' W 077°01'0 0.0
2018-Jun-18 22:29N 38°52' W 077°01'0 0.0
2018-Jun-18 21:58N 38°52' W 077°01'0 0.0
2018-Jun-18 21:28N 38°52' W 077°01'0 0.0
2018-Jun-18 21:00N 38°52' W 077°01'0 0.0
2018-Jun-18 20:29N 38°52' W 077°01'0 0.0
2018-Jun-18 19:58N 38°52' W 077°01'0 0.0
2018-Jun-18 19:28N 38°52' W 077°01'0 0.0
2018-Jun-18 18:57N 38°52' W 077°01'0 0.0
2018-Jun-18 18:28N 38°52' W 077°01'0 0.0
2018-Jun-18 17:57N 38°52' W 077°01'0 0.0
2018-Jun-18 17:28N 38°52' W 077°01'0 0.0
2018-Jun-18 16:56N 38°52' W 077°01'0 0.0
2018-Jun-18 16:28N 38°52' W 077°01'0 0.0
2018-Jun-18 16:00N 38°52' W 077°01'0 0.0
2018-Jun-18 15:28N 38°52' W 077°01'0 0.0
2018-Jun-18 14:58N 38°52' W 077°01'0 0.0
2018-Jun-18 14:27N 38°52' W 077°01'0 0.0
2018-Jun-18 13:58N 38°52' W 077°01'0 0.0
2018-Jun-18 13:29N 38°52' W 077°01'0 0.0
2018-Jun-18 12:59N 38°52' W 077°01'0 0.0
2018-Jun-18 12:30N 38°52' W 077°01'0 0.0
2018-Jun-18 12:00N 38°52' W 077°01'0 0.0
2018-Jun-18 11:25N 38°52' W 077°01'0 0.0
2018-Jun-18 10:56N 38°52' W 077°01'0 0.0
2018-Jun-18 10:30N 38°52' W 077°01'0 0.0
2018-Jun-18 09:59N 38°52' W 077°01'0 0.0
2018-Jun-18 09:28N 38°52' W 077°01'0 0.0
2018-Jun-18 08:57N 38°52' W 077°01'0 0.0
2018-Jun-18 08:28N 38°52' W 077°01'0 0.0
2018-Jun-18 08:00N 38°52' W 077°01'0 0.0
2018-Jun-18 07:29N 38°52' W 077°01'0 0.0
2018-Jun-18 06:58N 38°52' W 077°01'0 0.0
2018-Jun-18 06:19N 38°52' W 077°01'0 0.0
2018-Jun-18 05:59N 38°52' W 077°01'0 0.0
2018-Jun-18 05:30N 38°52' W 077°01'0 0.0
2018-Jun-18 05:00N 38°52' W 077°01'0 0.0
2018-Jun-18 04:27N 38°52' W 077°01'0 0.0
2018-Jun-18 03:58N 38°52' W 077°01'0 0.0
2018-Jun-18 03:28N 38°52' W 077°01'0 0.0
2018-Jun-18 02:59N 38°52' W 077°01'0 0.0
2018-Jun-18 02:30N 38°52' W 077°01'0 0.0
2018-Jun-18 01:57N 38°52' W 077°01'0 0.0
2018-Jun-18 01:23N 38°52' W 077°01'0 0.0
2018-Jun-18 00:58N 38°52' W 077°01'0 0.0
2018-Jun-18 00:28N 38°52' W 077°01'0 0.0
2018-Jun-17 23:56N 38°52' W 077°01'0 0.0
2018-Jun-17 23:27N 38°52' W 077°01'0 0.0
2018-Jun-17 22:58N 38°52' W 077°01'0 0.0
2018-Jun-17 22:28N 38°52' W 077°01'0 0.0
2018-Jun-17 22:00N 38°52' W 077°01'2 4.7
2018-Jun-17 21:30N 38°50' W 077°02'2 2.9
2018-Jun-17 21:00N 38°49' W 077°02'3 5.8
2018-Jun-17 20:30N 38°51' W 077°01'1 1.9
2018-Jun-17 19:59N 38°52' W 077°01'0 0.0
2018-Jun-17 19:29N 38°52' W 077°01'0 0.0
2018-Jun-17 18:57N 38°52' W 077°01'0 0.0
2018-Jun-17 18:27N 38°52' W 077°01'0 0.0
2018-Jun-17 17:59N 38°52' W 077°01'0 0.0
2018-Jun-17 17:25N 38°52' W 077°01'0 0.0
2018-Jun-17 16:56N 38°52' W 077°01'2 5.0
2018-Jun-17 16:28N 38°50' W 077°02'0 0.9
2018-Jun-17 16:01N 38°50' W 077°02'2 3.8
2018-Jun-17 15:29N 38°52' W 077°02'1 1.6
2018-Jun-17 14:57N 38°52' W 077°01'0 0.0
2018-Jun-17 14:27N 38°52' W 077°01'0 0.0
2018-Jun-17 13:59N 38°52' W 077°01'0 0.0
2018-Jun-17 13:27N 38°52' W 077°01'0 0.0
2018-Jun-17 13:00N 38°52' W 077°01'0 0.0
2018-Jun-17 12:26N 38°52' W 077°01'0 0.0
2018-Jun-17 12:00N 38°52' W 077°01'0 0.0
2018-Jun-17 11:28N 38°52' W 077°01'0 0.0
2018-Jun-17 10:58N 38°52' W 077°01'0 0.0
2018-Jun-17 10:28N 38°52' W 077°01'0 0.0
2018-Jun-17 09:58N 38°52' W 077°01'0 0.0
2018-Jun-17 09:29N 38°52' W 077°01'0 0.0
2018-Jun-17 08:57N 38°52' W 077°01'0 0.0
2018-Jun-17 08:26N 38°52' W 077°01'0 0.0
2018-Jun-17 08:00N 38°52' W 077°01'0 0.0
2018-Jun-17 07:28N 38°52' W 077°01'0 0.0
2018-Jun-17 06:57N 38°52' W 077°01'0 0.0
2018-Jun-17 06:28N 38°52' W 077°01'0 0.0
2018-Jun-17 06:00N 38°52' W 077°01'0 0.0
2018-Jun-17 05:29N 38°52' W 077°01'0 0.0
2018-Jun-17 04:59N 38°52' W 077°01'0 0.0
2018-Jun-17 04:29N 38°52' W 077°01'0 0.0
2018-Jun-17 03:57N 38°52' W 077°01'0 0.0
2018-Jun-17 03:28N 38°52' W 077°01'0 0.7
2018-Jun-17 02:57N 38°52' W 077°01'4 8.3
2018-Jun-17 02:30N 38°48' W 077°02'0 0.6
2018-Jun-17 01:58N 38°49' W 077°02'3 4.9
2018-Jun-17 01:27N 38°51' W 077°01'1 2.1
2018-Jun-17 00:59N 38°52' W 077°02'1 1.1
2018-Jun-17 00:28N 38°52' W 077°01'1 1.2
2018-Jun-16 23:56N 38°52' W 077°01'0 0.0
2018-Jun-16 23:27N 38°52' W 077°01'0 0.0
2018-Jun-16 22:59N 38°52' W 077°01'0 0.0
2018-Jun-16 22:28N 38°52' W 077°01'0 0.0
2018-Jun-16 21:56N 38°52' W 077°01'0 0.0
2018-Jun-16 21:27N 38°52' W 077°01'0 0.0
2018-Jun-16 20:56N 38°52' W 077°01'0 0.0
2018-Jun-16 20:29N 38°52' W 077°01'0 0.0
2018-Jun-16 19:58N 38°52' W 077°01'0 0.0
2018-Jun-16 19:29N 38°52' W 077°01'0 0.0
2018-Jun-16 18:54N 38°52' W 077°01'0 0.0
2018-Jun-16 18:29N 38°52' W 077°01'0 0.0
2018-Jun-16 17:58N 38°52' W 077°01'0 0.4
2018-Jun-16 17:25N 38°52' W 077°01'2 5.7
2018-Jun-16 17:00N 38°50' W 077°02'3 5.0
2018-Jun-16 16:29N 38°47' W 077°02'3 6.8
2018-Jun-16 15:59N 38°51' W 077°01'2 3.4
2018-Jun-16 15:30N 38°52' W 077°01'0 0.0
2018-Jun-16 14:59N 38°52' W 077°01'0 0.0
2018-Jun-16 14:28N 38°52' W 077°01'0 0.0
2018-Jun-16 13:58N 38°52' W 077°01'0 0.0
2018-Jun-16 13:28N 38°52' W 077°01'0 0.0
2018-Jun-16 12:57N 38°52' W 077°01'0 0.0
2018-Jun-16 12:30N 38°52' W 077°01'0 0.0
2018-Jun-16 12:00N 38°52' W 077°01'0 0.0
2018-Jun-16 11:28N 38°52' W 077°01'0 0.0
2018-Jun-16 10:54N 38°52' W 077°01'0 0.0
2018-Jun-16 10:30N 38°52' W 077°01'0 0.0
2018-Jun-16 09:58N 38°52' W 077°01'0 0.0
2018-Jun-16 09:28N 38°52' W 077°01'0 0.0
2018-Jun-16 08:56N 38°52' W 077°01'0 0.0
2018-Jun-16 08:27N 38°52' W 077°01'0 0.0
2018-Jun-16 07:59N 38°52' W 077°01'0 0.0
2018-Jun-16 07:28N 38°52' W 077°01'0 0.0
2018-Jun-16 06:59N 38°52' W 077°01'0 0.0
2018-Jun-16 06:30N 38°52' W 077°01'0 0.0
2018-Jun-16 05:58N 38°52' W 077°01'0 0.0
2018-Jun-16 05:28N 38°52' W 077°01'0 0.0
2018-Jun-16 04:57N 38°52' W 077°01'0 0.0
2018-Jun-16 04:30N 38°52' W 077°01'0 0.0
2018-Jun-16 03:56N 38°52' W 077°01'0 0.0
2018-Jun-16 03:28N 38°52' W 077°01'0 0.1
2018-Jun-16 02:56N 38°52' W 077°01'2 4.7
2018-Jun-16 02:30N 38°50' W 077°01'3 5.0
2018-Jun-16 01:58N 38°48' W 077°02'3 5.7
2018-Jun-16 01:27N 38°51' W 077°01'2 3.5
2018-Jun-16 00:59N 38°52' W 077°02'1 1.8
2018-Jun-16 00:30N 38°52' W 077°01'1 1.8
2018-Jun-15 23:58N 38°52' W 077°01'0 0.0
2018-Jun-15 23:28N 38°52' W 077°01'0 0.0
2018-Jun-15 22:59N 38°52' W 077°01'0 0.0
2018-Jun-15 22:26N 38°52' W 077°01'0 0.0
2018-Jun-15 22:00N 38°52' W 077°01'0 0.0
2018-Jun-15 21:29N 38°52' W 077°01'0 0.0
2018-Jun-15 20:56N 38°52' W 077°01'0 0.0
2018-Jun-15 20:28N 38°52' W 077°01'0 0.0
2018-Jun-15 19:50N 38°52' W 077°01'0 0.0
2018-Jun-15 19:30N 38°52' W 077°01'0 0.0
2018-Jun-15 18:59N 38°52' W 077°01'0 0.0
2018-Jun-15 18:29N 38°52' W 077°01'0 0.0
2018-Jun-15 17:58N 38°52' W 077°01'2 4.7
2018-Jun-15 17:30N 38°50' W 077°02'3 6.0
2018-Jun-15 17:00N 38°47' W 077°02'3 5.6
2018-Jun-15 16:30N 38°50' W 077°02'2 4.2
2018-Jun-15 15:57N 38°52' W 077°01'0 0.0
2018-Jun-15 15:26N 38°52' W 077°01'0 0.0
2018-Jun-15 15:00N 38°52' W 077°01'0 0.0
2018-Jun-15 14:29N 38°52' W 077°01'0 0.0
2018-Jun-15 14:00N 38°52' W 077°01'0 0.0
2018-Jun-15 13:29N 38°52' W 077°01'0 0.0
2018-Jun-15 13:00N 38°52' W 077°01'0 0.0
2018-Jun-15 12:27N 38°52' W 077°01'0 0.0
2018-Jun-15 11:59N 38°52' W 077°01'0 0.0
2018-Jun-15 11:29N 38°52' W 077°01'0 0.0
2018-Jun-15 10:57N 38°52' W 077°01'0 0.0
2018-Jun-15 10:30N 38°52' W 077°01'0 0.0
2018-Jun-15 10:00N 38°52' W 077°01'0 0.0
2018-Jun-15 09:26N 38°52' W 077°01'0 0.0
2018-Jun-15 08:58N 38°52' W 077°01'0 0.0
2018-Jun-15 08:29N 38°52' W 077°01'0 0.0
2018-Jun-15 07:58N 38°52' W 077°01'0 0.0
2018-Jun-15 07:25N 38°52' W 077°01'0 0.0
2018-Jun-15 06:57N 38°52' W 077°01'0 0.0
2018-Jun-15 06:25N 38°52' W 077°01'1 1.1
2018-Jun-15 05:56N 38°52' W 077°01'2 3.4
2018-Jun-15 05:30N 38°50' W 077°01'3 5.0
2018-Jun-15 04:59N 38°48' W 077°02'3 6.3
2018-Jun-15 04:31N 38°51' W 077°01'2 2.9
2018-Jun-15 03:59N 38°52' W 077°01'0 0.0
2018-Jun-15 03:30N 38°52' W 077°01'0 0.0
2018-Jun-15 02:59N 38°52' W 077°01'0 0.0
2018-Jun-15 02:27N 38°52' W 077°01'0 0.1
2018-Jun-15 01:58N 38°52' W 077°01'1 1.9
2018-Jun-15 01:30N 38°52' W 077°01'3 6.4
2018-Jun-15 00:59N 38°48' W 077°02'3 6.5
2018-Jun-15 00:30N 38°51' W 077°02'1 1.4
2018-Jun-14 23:59N 38°52' W 077°01'0 0.7
2018-Jun-14 23:28N 38°52' W 077°01'0 0.0
2018-Jun-14 22:58N 38°52' W 077°01'0 0.0
2018-Jun-14 22:29N 38°52' W 077°01'0 0.0
2018-Jun-14 21:57N 38°52' W 077°01'0 0.0
2018-Jun-14 21:30N 38°52' W 077°01'0 0.0
2018-Jun-14 20:56N 38°52' W 077°01'0 0.0
2018-Jun-14 20:26N 38°52' W 077°01'0 0.0
2018-Jun-14 20:01N 38°52' W 077°01'0 0.0
2018-Jun-14 19:28N 38°52' W 077°01'0 0.0
2018-Jun-14 18:56N 38°52' W 077°01'0 0.0
2018-Jun-14 18:29N 38°52' W 077°01'0 0.0
2018-Jun-14 17:59N 38°52' W 077°01'0 0.0
2018-Jun-14 17:27N 38°52' W 077°01'0 0.3
2018-Jun-14 16:58N 38°52' W 077°01'2 4.6
2018-Jun-14 16:30N 38°50' W 077°02'2 4.0
2018-Jun-14 16:00N 38°48' W 077°02'3 5.9
2018-Jun-14 15:30N 38°51' W 077°01'1 2.6
2018-Jun-14 14:58N 38°52' W 077°01'0 0.0
2018-Jun-14 14:26N 38°52' W 077°01'0 0.0
2018-Jun-14 13:57N 38°52' W 077°01'0 0.0
2018-Jun-14 13:28N 38°52' W 077°01'0 0.0
2018-Jun-14 12:58N 38°52' W 077°01'0 0.0
2018-Jun-14 12:29N 38°52' W 077°01'0 0.0
2018-Jun-14 12:00N 38°52' W 077°01'0 0.0
2018-Jun-14 11:26N 38°52' W 077°01'0 0.0
2018-Jun-14 10:58N 38°52' W 077°01'0 0.0
2018-Jun-14 10:29N 38°52' W 077°01'0 0.0
2018-Jun-14 10:00N 38°52' W 077°01'0 0.0
2018-Jun-14 09:26N 38°52' W 077°01'0 0.0
2018-Jun-14 08:59N 38°52' W 077°01'0 0.0
2018-Jun-14 08:30N 38°52' W 077°01'0 0.0
2018-Jun-14 07:57N 38°52' W 077°01'0 0.0
2018-Jun-14 07:27N 38°52' W 077°01'0 0.0
2018-Jun-14 07:00N 38°52' W 077°01'0 0.0
2018-Jun-14 06:27N 38°52' W 077°01'0 0.0
2018-Jun-14 05:58N 38°52' W 077°01'0 0.0
2018-Jun-14 05:28N 38°52' W 077°01'0 0.0
2018-Jun-14 04:56N 38°52' W 077°01'0 0.0
2018-Jun-14 04:25N 38°52' W 077°01'0 0.0
2018-Jun-14 03:56N 38°52' W 077°01'0 0.0
2018-Jun-14 03:30N 38°52' W 077°01'0 0.0
2018-Jun-14 03:00N 38°52' W 077°01'0 0.0
2018-Jun-14 02:28N 38°52' W 077°01'0 0.0
2018-Jun-14 01:59N 38°52' W 077°01'0 0.0
2018-Jun-14 01:29N 38°52' W 077°01'2 4.1
2018-Jun-14 00:58N 38°50' W 077°02'2 5.0
2018-Jun-14 00:30N 38°48' W 077°02'0 0.8
2018-Jun-13 23:59N 38°48' W 077°02'3 6.5
2018-Jun-13 23:30N 38°51' W 077°01'2 3.3
2018-Jun-13 22:59N 38°52' W 077°01'0 0.0
2018-Jun-13 22:28N 38°52' W 077°01'0 0.0
2018-Jun-13 21:58N 38°52' W 077°01'0 0.0
2018-Jun-13 21:29N 38°52' W 077°01'0 0.0
2018-Jun-13 21:00N 38°52' W 077°01'0 0.0
2018-Jun-13 20:28N 38°52' W 077°01'0 0.0
2018-Jun-13 19:57N 38°52' W 077°01'0 0.0
2018-Jun-13 19:30N 38°52' W 077°01'0 0.0
2018-Jun-13 18:57N 38°52' W 077°01'0 0.0
2018-Jun-13 18:27N 38°52' W 077°01'0 0.0
2018-Jun-13 18:00N 38°52' W 077°01'2 4.5
2018-Jun-13 17:28N 38°50' W 077°02'2 3.6
2018-Jun-13 16:59N 38°48' W 077°02'3 5.6
2018-Jun-13 16:30N 38°51' W 077°01'1 2.5
2018-Jun-13 15:57N 38°52' W 077°01'0 0.0
2018-Jun-13 15:28N 38°52' W 077°01'0 0.0
2018-Jun-13 15:00N 38°52' W 077°01'0 0.0
2018-Jun-13 14:30N 38°52' W 077°01'0 0.0
2018-Jun-13 13:48N 38°52' W 077°01'0 0.0
2018-Jun-13 13:29N 38°52' W 077°01'0 0.0
2018-Jun-13 12:58N 38°52' W 077°01'0 0.0
2018-Jun-13 12:28N 38°52' W 077°01'0 0.0
2018-Jun-13 11:55N 38°52' W 077°01'0 0.0
2018-Jun-13 11:26N 38°52' W 077°01'0 0.0
2018-Jun-13 10:57N 38°52' W 077°01'0 0.0
2018-Jun-13 10:27N 38°52' W 077°01'0 0.0
2018-Jun-13 10:00N 38°52' W 077°01'0 0.0
2018-Jun-13 09:29N 38°52' W 077°01'0 0.0
2018-Jun-13 08:59N 38°52' W 077°01'0 0.0
2018-Jun-13 08:30N 38°52' W 077°01'0 0.0
2018-Jun-13 07:59N 38°52' W 077°01'0 0.0
2018-Jun-13 07:30N 38°52' W 077°01'0 0.0
2018-Jun-13 06:56N 38°52' W 077°01'0 0.0
2018-Jun-13 06:30N 38°52' W 077°01'0 0.0
2018-Jun-13 05:55N 38°52' W 077°01'0 0.0
2018-Jun-13 05:26N 38°52' W 077°01'0 0.0
2018-Jun-13 04:57N 38°52' W 077°01'0 0.0
2018-Jun-13 04:27N 38°52' W 077°01'0 0.0
2018-Jun-13 03:58N 38°52' W 077°01'0 0.0
2018-Jun-13 03:30N 38°52' W 077°01'0 0.0
2018-Jun-13 02:59N 38°52' W 077°01'0 0.0
2018-Jun-13 02:28N 38°52' W 077°01'0 0.0
2018-Jun-13 01:57N 38°52' W 077°01'0 0.0
2018-Jun-13 01:30N 38°52' W 077°01'0 0.0
2018-Jun-13 01:00N 38°52' W 077°01'0 0.0
2018-Jun-13 00:30N 38°52' W 077°01'0 0.0
2018-Jun-12 23:57N 38°52' W 077°01'0 0.0
2018-Jun-12 23:28N 38°52' W 077°01'0 0.0
2018-Jun-12 22:57N 38°52' W 077°01'0 0.0
2018-Jun-12 22:27N 38°52' W 077°01'0 0.0
2018-Jun-12 21:58N 38°52' W 077°01'0 0.0
2018-Jun-12 21:27N 38°52' W 077°01'0 0.0
2018-Jun-12 20:58N 38°52' W 077°01'0 0.0
2018-Jun-12 20:30N 38°52' W 077°01'0 0.0
2018-Jun-12 20:00N 38°52' W 077°01'0 0.0
2018-Jun-12 19:27N 38°52' W 077°01'0 0.0
2018-Jun-12 18:55N 38°52' W 077°01'0 0.0
2018-Jun-12 18:28N 38°52' W 077°01'0 0.0
2018-Jun-12 18:00N 38°52' W 077°01'0 0.0
2018-Jun-12 17:27N 38°52' W 077°01'0 0.5
2018-Jun-12 17:00N 38°52' W 077°01'3 4.9
2018-Jun-12 16:29N 38°50' W 077°02'1 2.0
2018-Jun-12 15:58N 38°49' W 077°02'3 6.1
2018-Jun-12 15:24N 38°52' W 077°01'0 0.9
2018-Jun-12 14:57N 38°52' W 077°01'0 0.0
2018-Jun-12 14:27N 38°52' W 077°01'0 0.0
2018-Jun-12 13:57N 38°52' W 077°01'0 0.0
2018-Jun-12 13:28N 38°52' W 077°01'0 0.0
2018-Jun-12 12:57N 38°52' W 077°01'0 0.0
2018-Jun-12 12:26N 38°52' W 077°01'0 0.0
2018-Jun-12 11:57N 38°52' W 077°01'0 0.0
2018-Jun-12 11:29N 38°52' W 077°01'0 0.0
2018-Jun-12 10:58N 38°52' W 077°01'0 0.0
2018-Jun-12 10:30N 38°52' W 077°01'0 0.0
2018-Jun-12 09:59N 38°52' W 077°01'0 0.0
2018-Jun-12 09:25N 38°52' W 077°01'0 0.0
2018-Jun-12 08:56N 38°52' W 077°01'0 0.0
2018-Jun-12 08:27N 38°52' W 077°01'0 0.0
2018-Jun-12 08:00N 38°52' W 077°01'0 0.0
2018-Jun-12 07:27N 38°52' W 077°01'0 0.0
2018-Jun-12 06:58N 38°52' W 077°01'0 0.0
2018-Jun-12 06:29N 38°52' W 077°01'0 0.0
2018-Jun-12 05:56N 38°52' W 077°01'0 0.0
2018-Jun-12 05:27N 38°52' W 077°01'0 0.0
2018-Jun-12 04:58N 38°52' W 077°01'0 0.0
2018-Jun-12 04:30N 38°52' W 077°01'0 0.0
2018-Jun-12 03:55N 38°52' W 077°01'0 0.0
2018-Jun-12 03:29N 38°52' W 077°01'0 0.0
2018-Jun-12 02:58N 38°52' W 077°01'0 0.0
2018-Jun-12 02:27N 38°52' W 077°01'0 0.0
2018-Jun-12 02:00N 38°52' W 077°01'0 0.0
2018-Jun-12 01:27N 38°52' W 077°01'0 0.0
2018-Jun-12 00:58N 38°52' W 077°01'2 5.1
2018-Jun-12 00:29N 38°50' W 077°02'2 4.3
2018-Jun-11 23:59N 38°48' W 077°02'3 5.3
2018-Jun-11 23:29N 38°50' W 077°02'2 3.6
2018-Jun-11 22:56N 38°52' W 077°01'0 0.0
2018-Jun-11 22:30N 38°52' W 077°01'0 0.0
2018-Jun-11 21:57N 38°52' W 077°01'0 0.0
2018-Jun-11 21:27N 38°52' W 077°01'0 0.0
2018-Jun-11 20:58N 38°52' W 077°01'0 0.0
2018-Jun-11 20:27N 38°52' W 077°01'0 0.0
2018-Jun-11 20:00N 38°52' W 077°01'0 0.0
2018-Jun-11 19:29N 38°52' W 077°01'0 0.0
2018-Jun-11 18:59N 38°52' W 077°01'0 0.0
2018-Jun-11 18:29N 38°52' W 077°01'0 0.0
2018-Jun-11 17:57N 38°52' W 077°01'0 0.0
2018-Jun-11 17:28N 38°52' W 077°01'1 1.8
2018-Jun-11 17:00N 38°52' W 077°01'2 4.4
2018-Jun-11 16:30N 38°50' W 077°02'1 2.1
2018-Jun-11 16:00N 38°48' W 077°02'3 6.5
2018-Jun-11 15:30N 38°52' W 077°01'1 1.5
2018-Jun-11 14:58N 38°52' W 077°01'0 0.0
2018-Jun-11 14:31N 38°52' W 077°01'0 0.0
2018-Jun-11 14:00N 38°52' W 077°01'0 0.0
2018-Jun-11 13:29N 38°52' W 077°01'0 0.0
2018-Jun-11 12:59N 38°52' W 077°01'0 0.0
2018-Jun-11 12:30N 38°52' W 077°01'0 0.0
2018-Jun-11 12:00N 38°52' W 077°01'0 0.0
2018-Jun-11 11:29N 38°52' W 077°01'0 0.0
2018-Jun-11 10:57N 38°52' W 077°01'0 0.0
2018-Jun-11 10:26N 38°52' W 077°01'0 0.0
2018-Jun-11 09:59N 38°52' W 077°01'0 0.0
2018-Jun-11 09:30N 38°52' W 077°01'0 0.0
2018-Jun-11 08:57N 38°52' W 077°01'0 0.0
2018-Jun-11 08:28N 38°52' W 077°01'0 0.0
2018-Jun-11 07:59N 38°52' W 077°01'0 0.0
2018-Jun-11 07:29N 38°52' W 077°01'0 0.0
2018-Jun-11 07:00N 38°52' W 077°01'0 0.0
2018-Jun-11 06:26N 38°52' W 077°01'0 0.0
2018-Jun-11 05:56N 38°52' W 077°01'0 0.0
2018-Jun-11 05:27N 38°52' W 077°01'0 0.0
2018-Jun-11 04:56N 38°52' W 077°01'0 0.0
2018-Jun-11 04:30N 38°52' W 077°01'0 0.0
2018-Jun-11 03:56N 38°52' W 077°01'0 0.0
2018-Jun-11 03:26N 38°52' W 077°01'0 0.0
2018-Jun-11 02:58N 38°52' W 077°01'0 0.0
2018-Jun-11 02:29N 38°52' W 077°01'0 0.0
2018-Jun-11 01:56N 38°52' W 077°01'0 0.0
2018-Jun-11 01:25N 38°52' W 077°01'1 1.2
2018-Jun-11 00:59N 38°52' W 077°01'2 4.9
2018-Jun-11 00:29N 38°49' W 077°02'2 5.0
2018-Jun-11 00:00N 38°47' W 077°02'3 5.5
2018-Jun-10 23:30N 38°50' W 077°02'3 5.3
2018-Jun-10 22:59N 38°52' W 077°01'0 0.0
2018-Jun-10 22:30N 38°52' W 077°01'0 0.0
2018-Jun-10 22:00N 38°52' W 077°01'0 0.0
2018-Jun-10 21:28N 38°52' W 077°01'0 0.0
2018-Jun-10 20:56N 38°52' W 077°01'0 0.0
2018-Jun-10 20:29N 38°52' W 077°01'0 0.0
2018-Jun-10 19:58N 38°52' W 077°01'  

Dump ship's entire track history